createdAt,value
2023-01-06T00:00:21.844Z,73.82
2023-01-06T00:03:23.380Z,74.64
2023-01-06T00:06:28.336Z,73.88
2023-01-06T00:09:29.811Z,73.47
2023-01-06T00:12:32.823Z,73.49
2023-01-06T00:15:38.324Z,73.43
2023-01-06T00:18:40.380Z,74.37
2023-01-06T00:21:43.781Z,73.61
2023-01-06T00:24:45.537Z,73.70
2023-01-06T00:27:48.284Z,73.50
2023-01-06T00:30:51.186Z,73.93
2023-01-06T00:33:54.639Z,73.93
2023-01-06T00:36:58.367Z,74.38
2023-01-06T00:39:59.910Z,74.40
2023-01-06T00:43:02.900Z,74.52
2023-01-06T00:46:04.742Z,74.03
2023-01-06T00:49:08.083Z,74.46
2023-01-06T00:52:11.902Z,74.08
2023-01-06T00:58:36.536Z,74.61
2023-01-06T01:01:39.050Z,74.67
2023-01-06T01:04:42.219Z,74.39
2023-01-06T01:07:44.812Z,75.03
2023-01-06T01:10:47.597Z,75.47
2023-01-06T01:13:49.360Z,74.67
2023-01-06T01:16:52.539Z,74.97
2023-01-06T01:20:01.410Z,74.96
2023-01-06T01:23:03.853Z,75.10
2023-01-06T01:26:06.854Z,74.80
2023-01-06T01:29:12.707Z,74.76
2023-01-06T01:32:15.727Z,74.56
2023-01-06T01:35:17.950Z,74.69
2023-01-06T01:38:20.875Z,74.59
2023-01-06T01:41:23.859Z,74.51
2023-01-06T01:45:09.376Z,74.55
2023-01-06T01:48:17.247Z,74.96
2023-01-06T01:51:23.371Z,74.61
2023-01-06T01:57:55.413Z,74.77
2023-01-06T02:00:57.760Z,74.71
2023-01-06T02:04:02.169Z,74.19
2023-01-06T02:07:05.906Z,74.91
2023-01-06T02:10:13.370Z,75.01
2023-01-06T02:13:18.318Z,74.21
2023-01-06T02:20:24.207Z,71.88
2023-01-06T02:23:56.051Z,73.14
2023-01-06T02:27:34.790Z,72.94
2023-01-06T02:31:12.310Z,73.06
2023-01-06T02:34:27.704Z,72.71
2023-01-06T02:37:44.761Z,71.85
2023-01-06T02:41:03.823Z,71.96
2023-01-06T02:44:17.853Z,72.35
2023-01-06T02:47:27.180Z,72.14
2023-01-06T02:50:38.028Z,71.88
2023-01-06T02:53:49.998Z,71.20
2023-01-06T02:56:56.950Z,70.55
2023-01-06T03:00:05.646Z,70.77
2023-01-06T03:03:11.395Z,70.76
2023-01-06T03:06:17.476Z,70.40
2023-01-06T03:09:28.141Z,69.91
2023-01-06T03:12:35.229Z,69.88
2023-01-06T03:15:38.104Z,69.73
2023-01-06T03:18:43.258Z,69.03
2023-01-06T03:21:48.408Z,69.22
2023-01-06T03:24:51.382Z,69.28
2023-01-06T03:27:53.149Z,68.19
2023-01-06T03:31:05.588Z,68.99
2023-01-06T03:34:16.909Z,69.11
2023-01-06T03:37:32.468Z,68.48
2023-01-06T03:40:41.149Z,68.63
2023-01-06T03:43:51.906Z,67.88
2023-01-06T03:47:01.438Z,68.74
2023-01-06T03:50:09.559Z,68.60
2023-01-06T03:53:35.094Z,68.29
2023-01-06T03:56:42.751Z,67.74
2023-01-06T03:59:49.257Z,68.81
2023-01-06T04:02:52.351Z,68.57
2023-01-06T04:05:54.064Z,67.78
2023-01-06T04:08:57.252Z,67.85
2023-01-06T04:12:16.564Z,68.53
2023-01-06T04:15:21.401Z,68.41
2023-01-06T04:18:24.029Z,68.39
2023-01-06T04:21:25.323Z,68.51
2023-01-06T04:24:29.047Z,67.91
2023-01-06T04:27:30.420Z,68.14
2023-01-06T04:30:33.045Z,68.67
2023-01-06T04:33:34.375Z,67.65
2023-01-06T04:36:36.951Z,68.66
2023-01-06T04:39:38.949Z,68.48
2023-01-06T04:42:58.703Z,68.34
2023-01-06T04:46:01.340Z,68.89
2023-01-06T04:49:03.492Z,68.32
2023-01-06T04:52:06.267Z,69.27
2023-01-06T04:55:10.305Z,68.53
2023-01-06T04:58:11.704Z,69.73
2023-01-06T05:04:46.609Z,69.87
2023-01-06T05:07:49.830Z,69.89
2023-01-06T05:10:59.011Z,69.96
2023-01-06T05:14:00.402Z,71.03
2023-01-06T05:17:01.765Z,69.14
2023-01-06T05:20:04.098Z,69.74
2023-01-06T05:23:05.444Z,70.82
2023-01-06T05:26:11.227Z,70.08
2023-01-06T05:29:16.077Z,70.81
2023-01-06T05:32:17.571Z,70.76
2023-01-06T05:35:19.873Z,70.88
2023-01-06T05:38:22.446Z,70.84
2023-01-06T05:41:24.421Z,70.68
2023-01-06T05:44:25.713Z,71.42
2023-01-06T05:47:28.604Z,72.38
2023-01-06T05:50:30.705Z,72.37
2023-01-06T05:53:33.887Z,72.16
2023-01-06T05:56:36.610Z,73.54
2023-01-06T05:59:38.433Z,72.76
2023-01-06T06:02:40.008Z,72.95
2023-01-06T06:05:41.652Z,73.71
2023-01-06T06:08:43.293Z,74.14
2023-01-06T06:11:46.870Z,74.92
2023-01-06T06:14:48.503Z,75.62
2023-01-06T06:17:51.113Z,76.02
2023-01-06T06:20:52.516Z,75.42
2023-01-06T06:23:56.917Z,76.31
2023-01-06T06:26:59.345Z,75.30
2023-01-06T06:30:00.864Z,76.34
2023-01-06T06:33:02.636Z,76.36
2023-01-06T06:36:05.621Z,76.22
2023-01-06T06:39:07.406Z,76.52
2023-01-06T06:42:10.949Z,77.29
2023-01-06T06:45:14.153Z,77.86
2023-01-06T06:48:17.957Z,78.43
2023-01-06T06:51:21.325Z,77.92
2023-01-06T06:54:23.364Z,77.96
2023-01-06T06:57:25.839Z,79.18
2023-01-06T07:00:27.480Z,79.22
2023-01-06T07:03:29.156Z,78.77
2023-01-06T07:06:31.184Z,79.35
2023-01-06T07:09:33.575Z,79.87
2023-01-06T07:12:37.365Z,79.83
2023-01-06T07:15:39.179Z,79.37
2023-01-06T07:18:42.582Z,78.98
2023-01-06T07:21:44.339Z,79.85
2023-01-06T07:24:47.133Z,79.58
2023-01-06T07:27:54.310Z,80.28
2023-01-06T07:30:56.090Z,80.26
2023-01-06T07:33:57.709Z,80.11
2023-01-06T07:36:59.086Z,79.28
2023-01-06T07:40:00.964Z,79.83
2023-01-06T07:43:05.235Z,79.89
2023-01-06T07:46:07.225Z,79.99
2023-01-06T07:49:10.082Z,80.83
2023-01-06T07:52:11.740Z,80.14
2023-01-06T07:55:15.295Z,80.79
2023-01-06T07:58:19.133Z,80.63
2023-01-06T08:01:21.139Z,80.80
2023-01-06T08:04:22.785Z,81.77
2023-01-06T08:07:24.092Z,81.26
2023-01-06T08:10:26.973Z,81.41
2023-01-06T08:13:30.524Z,81.83
2023-01-06T08:16:32.355Z,81.19
2023-01-06T08:19:34.193Z,81.02
2023-01-06T08:22:37.099Z,81.68
2023-01-06T08:25:40.270Z,81.95
2023-01-06T08:28:43.934Z,82.06
2023-01-06T08:31:46.903Z,81.63
2023-01-06T08:34:49.755Z,81.56
2023-01-06T08:37:51.519Z,81.87
2023-01-06T08:40:53.391Z,82.72
2023-01-06T08:43:55.918Z,81.74
2023-01-06T08:47:01.798Z,81.85
2023-01-06T08:50:03.746Z,82.32
2023-01-06T08:53:05.366Z,82.79
2023-01-06T09:02:55.610Z,82.42
2023-01-06T09:09:20.607Z,83.20
2023-01-06T09:19:05.826Z,83.35
2023-01-06T09:22:08.671Z,82.77
2023-01-06T09:25:11.482Z,82.81
2023-01-06T09:28:13.251Z,82.75
2023-01-06T09:31:18.785Z,81.44
2023-01-06T09:34:21.830Z,81.92
2023-01-06T09:37:24.833Z,82.35
2023-01-06T09:40:33.539Z,82.27
2023-01-06T09:43:46.250Z,82.31
2023-01-06T09:46:52.640Z,82.80
2023-01-06T09:50:00.961Z,82.13
2023-01-06T09:53:11.406Z,81.30
2023-01-06T09:56:16.281Z,81.60
2023-01-06T09:59:26.046Z,81.42
2023-01-06T10:02:34.553Z,82.86
2023-01-06T10:05:43.041Z,82.44
2023-01-06T10:08:55.718Z,82.79
2023-01-06T10:12:08.744Z,81.64
2023-01-06T10:15:20.139Z,81.80
2023-01-06T10:18:32.871Z,82.05
2023-01-06T10:21:44.735Z,81.10
2023-01-06T10:24:55.049Z,82.36
2023-01-06T10:28:03.244Z,81.57
2023-01-06T10:31:09.127Z,82.31
2023-01-06T10:34:17.721Z,80.96
2023-01-06T10:37:22.650Z,82.02
2023-01-06T10:40:26.232Z,80.69
2023-01-06T10:43:28.676Z,81.77
2023-01-06T10:46:33.804Z,80.06
2023-01-06T10:49:37.164Z,80.80
2023-01-06T10:52:39.081Z,81.68
2023-01-06T10:55:45.744Z,80.84
2023-01-06T10:58:52.497Z,80.20
2023-01-06T11:01:57.689Z,82.36
2023-01-06T11:05:01.554Z,81.87
2023-01-06T11:08:06.084Z,81.44
2023-01-06T11:11:26.711Z,81.03
2023-01-06T11:14:31.576Z,82.38
2023-01-06T11:17:34.551Z,81.71
2023-01-06T11:20:36.565Z,81.29
2023-01-06T11:23:41.194Z,82.06
2023-01-06T11:26:44.956Z,82.41
2023-01-06T11:29:47.775Z,82.28
2023-01-06T11:32:49.357Z,81.69
2023-01-06T11:35:53.276Z,81.52
2023-01-06T11:38:57.166Z,81.78
2023-01-06T11:42:04.769Z,82.46
2023-01-06T11:45:07.063Z,83.03
2023-01-06T11:48:18.626Z,84.21
2023-01-06T11:51:32.715Z,83.72
2023-01-06T11:54:37.467Z,83.42
2023-01-06T11:57:48.104Z,83.48
2023-01-06T12:00:54.191Z,82.99
2023-01-06T12:04:10.294Z,82.42
2023-01-06T12:07:21.608Z,82.69
2023-01-06T12:14:08.302Z,83.27
2023-01-06T12:17:14.573Z,82.32
2023-01-06T12:20:22.010Z,81.93
2023-01-06T12:23:28.211Z,81.77
2023-01-06T12:26:35.615Z,82.84
2023-01-06T12:29:38.789Z,82.31
2023-01-06T12:32:46.188Z,82.60
2023-01-06T12:35:51.944Z,81.83
2023-01-06T12:38:55.659Z,82.67
2023-01-06T12:42:05.837Z,82.16
2023-01-06T12:45:14.845Z,82.95
2023-01-06T12:48:22.576Z,82.22
2023-01-06T12:51:30.112Z,82.34
2023-01-06T12:54:34.104Z,82.38
2023-01-06T12:57:54.944Z,82.43
2023-01-06T13:01:01.760Z,81.29
2023-01-06T13:04:38.828Z,81.72
2023-01-06T13:07:49.460Z,80.88
2023-01-06T13:10:59.147Z,81.16
2023-01-06T13:14:06.536Z,80.78
2023-01-06T13:17:15.426Z,81.28
2023-01-06T13:20:27.335Z,81.24
2023-01-06T13:23:42.786Z,80.32
2023-01-06T13:26:59.520Z,79.17
2023-01-06T13:30:18.353Z,79.52
2023-01-06T13:33:42.766Z,79.41
2023-01-06T13:40:55.225Z,77.85
2023-01-06T13:43:59.016Z,78.22
2023-01-06T13:47:07.289Z,78.09
2023-01-06T13:50:13.408Z,77.28
2023-01-06T13:53:17.870Z,76.87
2023-01-06T13:56:24.062Z,76.25
2023-01-06T13:59:27.294Z,76.65
2023-01-06T14:03:25.092Z,77.44
2023-01-06T14:06:45.574Z,78.48
2023-01-06T14:09:50.939Z,78.23
2023-01-06T14:12:52.497Z,78.74
2023-01-06T14:15:57.886Z,80.68
2023-01-06T14:19:06.470Z,81.62
2023-01-06T14:22:17.347Z,80.61
2023-01-06T14:25:23.334Z,79.28
2023-01-06T14:28:29.923Z,79.90
2023-01-06T14:31:41.116Z,79.56
2023-01-06T14:34:48.998Z,80.65
2023-01-06T14:37:56.369Z,81.32
2023-01-06T14:41:01.833Z,81.46
2023-01-06T14:44:08.008Z,82.06
2023-01-06T14:47:16.125Z,81.86
2023-01-06T14:50:20.816Z,82.32
2023-01-06T14:53:27.759Z,82.19
2023-01-06T14:56:33.333Z,82.11
2023-01-06T14:59:35.945Z,81.77
2023-01-06T15:02:45.441Z,81.68
2023-01-06T15:05:46.877Z,81.71
2023-01-06T15:08:49.057Z,81.05
2023-01-06T15:11:50.506Z,82.24
2023-01-06T15:14:52.277Z,82.46
2023-01-06T15:17:57.162Z,82.07
2023-01-06T15:20:59.275Z,82.28
2023-01-06T15:24:01.971Z,82.19
2023-01-06T15:27:05.161Z,82.30
2023-01-06T15:30:16.739Z,82.14
2023-01-06T15:33:21.181Z,81.94
2023-01-06T15:36:24.065Z,81.76
2023-01-06T15:39:28.301Z,82.48
2023-01-06T15:42:31.401Z,82.18
2023-01-06T15:45:33.460Z,81.93
2023-01-06T15:48:40.963Z,81.72
2023-01-06T15:51:42.933Z,81.30
2023-01-06T15:54:46.123Z,81.35
2023-01-06T15:57:54.954Z,80.88
2023-01-06T16:01:00.658Z,80.71
2023-01-06T16:04:03.243Z,80.33
2023-01-06T16:07:21.036Z,80.41
2023-01-06T16:11:02.036Z,79.87
2023-01-06T16:14:06.450Z,80.58
2023-01-06T16:17:11.968Z,80.92
2023-01-06T16:20:23.666Z,80.11
2023-01-06T16:23:30.632Z,80.90
2023-01-06T16:26:34.413Z,80.26
2023-01-06T16:29:38.175Z,80.32
2023-01-06T16:32:42.852Z,80.70
2023-01-06T16:35:46.529Z,80.70
2023-01-06T16:38:48.263Z,80.85
2023-01-06T16:42:42.367Z,80.42
2023-01-06T16:45:47.744Z,80.38
2023-01-06T16:48:54.232Z,80.15
2023-01-06T16:51:56.992Z,80.63
2023-01-06T16:54:59.560Z,81.14
2023-01-06T16:58:05.209Z,80.38
2023-01-06T17:01:15.112Z,81.24
2023-01-06T17:04:16.608Z,81.26
2023-01-06T17:07:20.131Z,81.31
2023-01-06T17:10:23.492Z,80.78
2023-01-06T17:13:36.646Z,82.00
2023-01-06T17:16:41.011Z,80.93
2023-01-06T17:19:42.424Z,81.19
2023-01-06T17:22:48.597Z,81.64
2023-01-06T17:29:13.954Z,80.82
2023-01-06T17:32:20.362Z,81.17
2023-01-06T17:35:26.133Z,81.40
2023-01-06T17:38:30.438Z,81.67
2023-01-06T17:41:31.876Z,81.34
2023-01-06T17:44:36.565Z,81.40
2023-01-06T17:47:46.297Z,82.19
2023-01-06T17:50:50.215Z,80.62
2023-01-06T17:54:11.540Z,80.89
2023-01-06T17:57:18.168Z,82.19
2023-01-06T18:00:22.930Z,82.01
2023-01-06T18:03:26.877Z,81.90
2023-01-06T18:06:29.674Z,82.29
2023-01-06T18:09:32.859Z,82.18
2023-01-06T18:12:34.227Z,81.95
2023-01-06T18:15:37.949Z,82.35
2023-01-06T18:18:40.501Z,82.04
2023-01-06T18:21:45.652Z,82.08
2023-01-06T18:24:50.791Z,81.96
2023-01-06T18:27:53.459Z,82.04
2023-01-06T18:30:57.523Z,81.87
2023-01-06T18:34:01.484Z,81.79
2023-01-06T18:37:03.169Z,81.78
2023-01-06T18:40:07.759Z,81.14
2023-01-06T18:43:24.856Z,82.03
2023-01-06T18:46:27.587Z,80.62
2023-01-06T18:49:33.057Z,81.24
2023-01-06T18:52:38.964Z,81.09
2023-01-06T18:55:44.526Z,81.38
2023-01-06T19:02:28.158Z,82.53
2023-01-06T19:05:30.552Z,81.92
2023-01-06T19:08:33.900Z,82.19
2023-01-06T19:11:37.986Z,82.16
2023-01-06T19:14:43.558Z,82.17
2023-01-06T19:17:47.117Z,82.23
2023-01-06T19:20:48.461Z,81.60
2023-01-06T19:23:49.876Z,82.38
2023-01-06T19:26:53.487Z,82.82
2023-01-06T19:30:00.963Z,82.55
2023-01-06T19:33:20.161Z,81.66
2023-01-06T19:36:35.436Z,81.71
2023-01-06T19:39:39.629Z,82.15
2023-01-06T19:42:42.170Z,81.32
2023-01-06T19:45:44.376Z,81.53
2023-01-06T19:48:47.017Z,82.40
2023-01-06T19:51:50.248Z,82.48
2023-01-06T19:54:51.736Z,82.84
2023-01-06T19:57:55.150Z,83.00
2023-01-06T20:00:59.875Z,82.52
2023-01-06T20:04:01.758Z,82.53
2023-01-06T20:07:03.647Z,82.15
2023-01-06T20:10:05.943Z,82.45
2023-01-06T20:13:07.977Z,83.08
2023-01-06T20:16:09.675Z,81.77
2023-01-06T20:19:12.229Z,82.62
2023-01-06T20:22:13.803Z,82.80
2023-01-06T20:25:16.287Z,82.52
2023-01-06T20:28:18.255Z,82.81
2023-01-06T20:31:20.909Z,82.16
2023-01-06T20:34:22.432Z,82.36
2023-01-06T20:37:25.347Z,83.01
2023-01-06T20:40:26.900Z,82.63
2023-01-06T20:43:30.097Z,81.96
2023-01-06T20:46:31.521Z,82.00
2023-01-06T20:49:34.912Z,82.80
2023-01-06T20:52:36.695Z,82.72
2023-01-06T20:55:39.242Z,82.79
2023-01-06T20:58:41.180Z,81.21
2023-01-06T21:01:43.847Z,81.47
2023-01-06T21:04:46.471Z,81.73
2023-01-06T21:07:49.226Z,80.71
2023-01-06T21:10:51.771Z,81.35
2023-01-06T21:13:54.961Z,79.63
2023-01-06T21:16:56.447Z,77.76
2023-01-06T21:19:59.113Z,79.10
2023-01-06T21:23:00.411Z,79.08
2023-01-06T21:26:02.933Z,79.99
2023-01-06T21:29:04.849Z,78.90
2023-01-06T21:32:07.665Z,80.58
2023-01-06T21:35:09.292Z,79.10
2023-01-06T21:38:12.161Z,79.79
2023-01-06T21:41:29.352Z,80.31
2023-01-06T21:44:31.353Z,79.13
2023-01-06T21:47:33.901Z,78.34
2023-01-06T21:50:38.857Z,80.91
2023-01-06T21:53:41.869Z,79.31
2023-01-06T21:56:44.871Z,79.69
2023-01-06T21:59:46.933Z,78.56
2023-01-06T22:02:49.955Z,78.42
2023-01-06T22:05:51.885Z,76.54
2023-01-06T22:08:55.136Z,78.57
2023-01-06T22:12:00.101Z,78.90
2023-01-06T22:15:03.582Z,76.27
2023-01-06T22:18:08.511Z,76.76
2023-01-06T22:21:11.937Z,77.33
2023-01-06T22:27:38.196Z,77.94
2023-01-06T22:30:40.163Z,79.85
2023-01-06T22:33:42.745Z,80.13
2023-01-06T22:36:44.071Z,78.57
2023-01-06T22:39:47.192Z,78.79
2023-01-06T22:42:49.817Z,77.88
2023-01-06T22:45:52.579Z,76.63
2023-01-06T22:48:55.159Z,76.92
2023-01-06T22:51:56.691Z,76.46
2023-01-06T22:54:59.567Z,76.16
2023-01-06T22:58:02.136Z,76.73
2023-01-06T23:01:07.067Z,76.72
2023-01-06T23:04:09.887Z,75.80
2023-01-06T23:07:11.234Z,75.20
2023-01-06T23:10:15.172Z,75.73
2023-01-06T23:13:17.862Z,75.11
2023-01-06T23:16:21.478Z,75.59
2023-01-06T23:19:24.041Z,74.51
2023-01-06T23:22:25.685Z,75.36
2023-01-06T23:25:28.291Z,75.78
2023-01-06T23:28:29.733Z,74.94
2023-01-06T23:31:34.921Z,75.38
2023-01-06T23:34:37.556Z,73.75
2023-01-06T23:37:38.860Z,75.29
2023-01-06T23:40:41.412Z,75.39
2023-01-06T23:43:43.377Z,75.12
2023-01-06T23:46:47.468Z,73.10
2023-01-06T23:49:50.048Z,73.97
2023-01-06T23:52:54.072Z,73.90
2023-01-06T23:55:58.686Z,73.73
2023-01-06T23:59:02.631Z,73.31
